San Pedro Pride — WDI7604 — position and weather

sailwx.info

Track history (hours):
 
Tides and Currents Weather Stations Pressure Air Temp Water Temp Dewpoint Dewpoint Depression Visibility Wind Speed Wind Dir Waves Ship Positions

San Pedro Pride

Owner: San Pedro Pride, Inc., Rancho Palos Verdes, CA. More information available from US FCC via Universal Licensing System and Coast Guard Vessel Documentation Center.

Last reported at 2017-Dec-15 00:46 UTC. Time now 2018-Jan-23 10:04 UTC.
Position N 33°58' W 119°40'.
Warning: this ship's position is 39 days out of date.

Type: Fishing. MMSI: 367730310.

Date/timePositionNaut miles runAvg speedWind from/ knotsBaromVisibWave heightAir tempDewpointWater temp
2017-Dec-15 00:46N 33°58' W 119°40'1 2.4
2017-Dec-15 00:25N 33°59' W 119°39'25 4.2
2017-Dec-14 18:30N 34°14' W 119°16'0 0.0
2017-Dec-14 18:00N 34°14' W 119°16'0 0.0
2017-Dec-14 17:30N 34°14' W 119°16'0 0.0
2017-Dec-14 17:00N 34°14' W 119°16'0 0.0
2017-Dec-14 16:28N 34°14' W 119°16'0 0.1
2017-Dec-14 16:00N 34°14' W 119°16'0 0.0
2017-Dec-14 15:00N 34°14' W 119°16'1 2.2
2017-Dec-14 14:30N 34°14' W 119°17'4 8.4
2017-Dec-14 14:00N 34°11' W 119°20'4 8.0
2017-Dec-14 13:29N 34°08' W 119°24'4 7.7
2017-Dec-14 13:00N 34°05' W 119°27'4 8.3
2017-Dec-14 12:28N 34°02' W 119°30'4 8.3
2017-Dec-14 12:00N 33°59' W 119°33'5 8.1
2017-Dec-14 11:25N 33°58' W 119°39'1 0.2
2017-Dec-14 07:34N 33°58' W 119°40'0 0.2
2017-Dec-14 06:11N 33°59' W 119°40'0 0.1
2017-Dec-13 23:57N 33°58' W 119°40'4 8.1
2017-Dec-13 23:30N 33°59' W 119°36'4 8.5
2017-Dec-13 22:59N 34°00' W 119°31'5 8.8
2017-Dec-13 22:24N 34°04' W 119°27'4 8.8
2017-Dec-13 22:00N 34°07' W 119°24'4 8.4
2017-Dec-13 21:30N 34°10' W 119°21'4 8.3
2017-Dec-13 21:00N 34°13' W 119°18'2 3.5
2017-Dec-13 20:25N 34°14' W 119°16'0 0.0
2017-Dec-13 20:00N 34°14' W 119°16'0 0.0
2017-Dec-13 19:30N 34°14' W 119°16'0 0.0
2017-Dec-13 19:00N 34°14' W 119°16'0 0.0
2017-Dec-13 18:24N 34°14' W 119°16'0 0.0
2017-Dec-13 18:00N 34°14' W 119°16'0 0.1
2017-Dec-13 17:29N 34°14' W 119°16'0 0.0
2017-Dec-13 17:00N 34°14' W 119°16'0 0.0
2017-Dec-13 16:29N 34°14' W 119°16'2 4.4
2017-Dec-13 15:58N 34°13' W 119°18'4 8.3
2017-Dec-13 15:27N 34°10' W 119°22'4 8.2
2017-Dec-13 14:58N 34°07' W 119°24'4 8.1
2017-Dec-13 14:27N 34°04' W 119°28'4 8.6
2017-Dec-13 13:57N 34°00' W 119°31'4 8.2
2017-Dec-13 13:29N 33°59' W 119°35'4 8.3
2017-Dec-13 13:00N 33°58' W 119°40'0 0.0
2017-Dec-13 09:06N 33°58' W 119°40'0 0.5
2017-Dec-13 08:53N 33°58' W 119°40'1 1.2
2017-Dec-13 08:14N 33°59' W 119°39'1 0.1
2017-Dec-13 00:30N 33°59' W 119°40'3 5.2
2017-Dec-13 00:00N 33°59' W 119°37'4 8.0
2017-Dec-12 23:26N 33°60' W 119°32'4 8.7
2017-Dec-12 22:57N 34°03' W 119°28'4 8.6
2017-Dec-12 22:26N 34°06' W 119°25'4 8.5
2017-Dec-12 22:00N 34°09' W 119°22'4 8.2
2017-Dec-12 21:29N 34°12' W 119°18'3 6.7
2017-Dec-12 21:00N 34°15' W 119°16'0 0.4
2017-Dec-12 20:30N 34°14' W 119°16'0 0.1
2017-Dec-12 20:00N 34°14' W 119°16'0 0.0
2017-Dec-12 19:30N 34°14' W 119°16'0 0.0
2017-Dec-12 19:00N 34°14' W 119°16'0 0.0
2017-Dec-12 18:30N 34°14' W 119°16'0 0.0
2017-Dec-12 17:57N 34°14' W 119°16'0 0.8
2017-Dec-12 17:30N 34°15' W 119°16'4 7.3
2017-Dec-12 17:00N 34°12' W 119°19'6 8.2
2017-Dec-12 16:19N 34°08' W 119°23'3 7.9
2017-Dec-12 15:59N 34°06' W 119°25'4 8.2
2017-Dec-12 15:29N 34°03' W 119°29'4 8.4
2017-Dec-12 15:00N 33°60' W 119°32'5 8.1
2017-Dec-12 14:25N 33°59' W 119°38'2 1.1
2017-Dec-12 12:26N 33°58' W 119°40'1 0.1
2017-Dec-12 05:25N 33°58' W 119°39'2 0.3
2017-Dec-12 00:05N 33°59' W 119°37'1 8.4
2017-Dec-12 00:00N 33°59' W 119°36'4 8.2
2017-Dec-11 23:30N 34°00' W 119°31'4 8.2
2017-Dec-11 23:00N 34°03' W 119°28'4 8.3
2017-Dec-11 22:30N 34°06' W 119°25'5 8.1
2017-Dec-11 21:54N 34°10' W 119°21'4 8.0
2017-Dec-11 21:25N 34°13' W 119°18'3 6.4
2017-Dec-11 21:00N 34°15' W 119°16'0 0.8
2017-Dec-11 20:29N 34°14' W 119°16'0 0.0
2017-Dec-11 20:00N 34°14' W 119°16'0 0.0
2017-Dec-11 19:30N 34°14' W 119°16'0 0.0
2017-Dec-11 19:00N 34°14' W 119°16'0 0.0
2017-Dec-11 18:30N 34°14' W 119°16'0 0.0
2017-Dec-11 18:00N 34°14' W 119°16'0 0.0
2017-Dec-11 17:30N 34°14' W 119°16'0 0.0
2017-Dec-11 17:00N 34°14' W 119°16'1 1.0
2017-Dec-11 16:27N 34°15' W 119°16'5 8.0
2017-Dec-11 15:48N 34°11' W 119°21'3 8.2
2017-Dec-11 15:23N 34°08' W 119°23'3 7.8
2017-Dec-11 14:57N 34°06' W 119°26'3 8.0
2017-Dec-11 14:30N 34°03' W 119°29'4 8.1
2017-Dec-11 13:59N 33°60' W 119°32'4 0.2
2017-Dec-10 19:18N 33°59' W 119°37'3 8.5
2017-Dec-10 18:56N 33°59' W 119°33'4 8.1
2017-Dec-10 18:30N 34°01' W 119°30'5 8.6
2017-Dec-10 17:57N 34°05' W 119°26'4 8.5
2017-Dec-10 17:30N 34°08' W 119°23'5 8.3
2017-Dec-10 16:56N 34°12' W 119°19'4 8.3
2017-Dec-10 16:26N 34°15' W 119°16'0 1.1
2017-Dec-10 16:00N 34°14' W 119°16'0 0.0
2017-Dec-10 15:30N 34°14' W 119°16'0 0.0
2017-Dec-10 14:58N 34°14' W 119°16'0 0.0
2017-Dec-10 14:29N 34°14' W 119°16'0 0.0
2017-Dec-10 13:59N 34°14' W 119°16'0 0.0
2017-Dec-10 13:30N 34°14' W 119°16'0 0.0
2017-Dec-10 12:55N 34°14' W 119°16'0 0.0
2017-Dec-10 12:14N 34°14' W 119°16'0 0.0
2017-Dec-10 11:59N 34°14' W 119°16'0 0.0
2017-Dec-10 11:25N 34°14' W 119°16'0 0.0
2017-Dec-10 10:57N 34°14' W 119°16'0 0.0
2017-Dec-10 10:28N 34°14' W 119°16'0 0.0
2017-Dec-10 09:54N 34°14' W 119°16'0 0.0
2017-Dec-10 09:28N 34°14' W 119°16'0 0.0
2017-Dec-10 09:00N 34°14' W 119°16'0 0.0
2017-Dec-10 08:26N 34°14' W 119°16'0 0.0
2017-Dec-10 08:00N 34°14' W 119°16'0 0.0
2017-Dec-10 07:30N 34°14' W 119°16'0 0.0
2017-Dec-10 06:56N 34°14' W 119°16'0 0.0
2017-Dec-10 06:30N 34°14' W 119°16'0 0.0
2017-Dec-10 06:00N 34°14' W 119°16'0 0.0
2017-Dec-10 05:29N 34°14' W 119°16'0 0.0
2017-Dec-10 04:58N 34°14' W 119°16'0 0.0
2017-Dec-10 04:29N 34°14' W 119°16'0 0.0
2017-Dec-10 04:00N 34°14' W 119°16'0 0.0
2017-Dec-10 03:17N 34°14' W 119°16'0 0.0
2017-Dec-10 02:54N 34°14' W 119°16'0 0.0
2017-Dec-10 02:14N 34°14' W 119°16'0 0.0
2017-Dec-10 01:57N 34°14' W 119°16'0 0.0
2017-Dec-10 01:30N 34°14' W 119°16'0 0.0
2017-Dec-10 01:00N 34°14' W 119°16'0 0.0
2017-Dec-10 00:30N 34°14' W 119°16'0 0.0
2017-Dec-09 23:52N 34°14' W 119°16'0 0.0
2017-Dec-09 23:30N 34°14' W 119°16'0 0.0
2017-Dec-09 22:59N 34°14' W 119°16'0 0.0
2017-Dec-09 22:30N 34°14' W 119°16'0 0.0
2017-Dec-09 21:58N 34°14' W 119°16'0 0.0
2017-Dec-09 21:16N 34°14' W 119°16'0 0.0
2017-Dec-09 20:58N 34°14' W 119°16'0 0.0
2017-Dec-09 20:29N 34°14' W 119°16'0 0.0
2017-Dec-09 19:56N 34°14' W 119°16'0 0.0
2017-Dec-09 19:28N 34°14' W 119°16'0 0.0
2017-Dec-09 18:59N 34°14' W 119°16'0 0.0
2017-Dec-09 18:22N 34°14' W 119°16'0 0.0
2017-Dec-09 17:57N 34°14' W 119°16'0 0.0
2017-Dec-09 17:24N 34°14' W 119°16'0 0.0
2017-Dec-09 16:58N 34°14' W 119°16'0 0.0
2017-Dec-09 16:23N 34°14' W 119°16'0 0.0
2017-Dec-09 15:58N 34°14' W 119°16'0 0.0
2017-Dec-09 15:30N 34°14' W 119°16'0 0.0
2017-Dec-09 14:58N 34°14' W 119°16'0 0.0
2017-Dec-09 14:28N 34°14' W 119°16'0 0.0
2017-Dec-09 13:58N 34°14' W 119°16'0 0.0
2017-Dec-09 13:29N 34°14' W 119°16'0 0.0
2017-Dec-09 13:00N 34°14' W 119°16'0 0.0
2017-Dec-09 12:24N 34°14' W 119°16'0 0.0
2017-Dec-09 12:00N 34°14' W 119°16'0 0.0
2017-Dec-09 11:30N 34°14' W 119°16'0 0.0
2017-Dec-09 11:00N 34°14' W 119°16'0 0.0
2017-Dec-09 10:30N 34°14' W 119°16'0 0.0
2017-Dec-09 09:59N 34°14' W 119°16'0 0.0
2017-Dec-09 09:29N 34°14' W 119°16'0 0.0
2017-Dec-09 08:56N 34°14' W 119°16'0 0.0
2017-Dec-09 08:27N 34°14' W 119°16'0 0.0
2017-Dec-09 08:00N 34°14' W 119°16'0 0.0
2017-Dec-09 07:22N 34°14' W 119°16'0 0.0
2017-Dec-09 06:56N 34°14' W 119°16'0 0.0
2017-Dec-09 06:30N 34°14' W 119°16'0 0.0
2017-Dec-09 05:55N 34°14' W 119°16'0 0.0
2017-Dec-09 05:20N 34°14' W 119°16'0 0.0
2017-Dec-09 04:57N 34°14' W 119°16'0 0.0
2017-Dec-09 04:30N 34°14' W 119°16'0 0.0
2017-Dec-09 04:00N 34°14' W 119°16'0 0.0
2017-Dec-09 03:30N 34°14' W 119°16'0 0.0
2017-Dec-09 03:00N 34°14' W 119°16'0 0.0
2017-Dec-09 02:30N 34°14' W 119°16'0 0.0
2017-Dec-09 02:00N 34°14' W 119°16'0 0.0
2017-Dec-09 01:29N 34°14' W 119°16'0 0.0
2017-Dec-09 00:54N 34°14' W 119°16'0 0.0
2017-Dec-09 00:29N 34°14' W 119°16'0 0.0
2017-Dec-08 23:52N 34°14' W 119°16'0 0.0
2017-Dec-08 23:28N 34°14' W 119°16'0 0.0
2017-Dec-08 22:59N 34°14' W 119°16'0 0.0
2017-Dec-08 22:30N 34°14' W 119°16'0 0.0
2017-Dec-08 21:59N 34°14' W 119°16'0 0.0
2017-Dec-08 21:30N 34°14' W 119°16'0 0.0
2017-Dec-08 20:59N 34°14' W 119°16'0 0.0
2017-Dec-08 20:29N 34°14' W 119°16'0 0.0
2017-Dec-08 19:55N 34°14' W 119°16'0 0.0
2017-Dec-08 19:30N 34°14' W 119°16'0 0.0
2017-Dec-08 18:59N 34°14' W 119°16'0 0.0
2017-Dec-08 18:29N 34°14' W 119°16'1 1.6
2017-Dec-08 18:01N 34°14' W 119°17'0 0.2
2017-Dec-08 17:29N 34°14' W 119°17'0 0.3
2017-Dec-08 17:00N 34°14' W 119°17'1 1.4
2017-Dec-08 16:30N 34°14' W 119°16'0 0.0
2017-Dec-08 16:00N 34°14' W 119°16'0 0.0
2017-Dec-08 15:30N 34°14' W 119°16'0 0.0
2017-Dec-08 14:58N 34°14' W 119°16'0 0.0
2017-Dec-08 14:30N 34°14' W 119°16'0 0.0
2017-Dec-08 13:52N 34°14' W 119°16'0 0.0
2017-Dec-08 13:21N 34°14' W 119°16'0 0.0
2017-Dec-08 12:58N 34°14' W 119°16'0 0.0
2017-Dec-08 12:27N 34°14' W 119°16'0 0.0
2017-Dec-08 11:51N 34°14' W 119°16'0 0.0
2017-Dec-08 11:30N 34°14' W 119°16'3 5.3
2017-Dec-08 10:58N 34°13' W 119°18'4 8.0
2017-Dec-08 10:30N 34°10' W 119°21'4 8.1
2017-Dec-08 10:00N 34°07' W 119°24'4 7.8
2017-Dec-08 09:30N 34°04' W 119°28'4 8.4
2017-Dec-08 09:00N 34°01' W 119°31'4 7.3
2017-Dec-08 08:26N 33°59' W 119°35'3 7.3
2017-Dec-08 08:00N 33°59' W 119°39'0 0.0
2017-Dec-08 05:22N 33°59' W 119°39'3 0.4
2017-Dec-07 23:15N 33°59' W 119°36'3 8.6
2017-Dec-07 22:57N 33°59' W 119°33'4 8.6
2017-Dec-07 22:29N 34°01' W 119°29'4 8.5
2017-Dec-07 22:00N 34°05' W 119°27'4 8.1
2017-Dec-07 21:27N 34°08' W 119°23'4 8.5
2017-Dec-07 21:00N 34°11' W 119°20'4 8.4
2017-Dec-07 20:30N 34°14' W 119°17'1 1.7
2017-Dec-07 20:00N 34°14' W 119°16'0 0.0
2017-Dec-07 19:30N 34°14' W 119°16'0 0.0
2017-Dec-07 19:00N 34°14' W 119°16'0 0.0
2017-Dec-07 18:30N 34°14' W 119°16'0 0.0
2017-Dec-07 18:01N 34°14' W 119°16'0 0.0
2017-Dec-07 17:31N 34°14' W 119°16'0 0.0
2017-Dec-07 17:00N 34°14' W 119°16'0 0.0
2017-Dec-07 16:31N 34°14' W 119°16'0 0.0
2017-Dec-07 16:00N 34°14' W 119°16'0 0.0
2017-Dec-07 15:31N 34°14' W 119°16'0 0.0
2017-Dec-07 15:01N 34°14' W 119°16'0 0.0
2017-Dec-07 14:31N 34°14' W 119°16'0 0.0
2017-Dec-07 14:00N 34°14' W 119°16'0 0.0
2017-Dec-07 13:31N 34°14' W 119°16'0 0.0
2017-Dec-07 13:00N 34°14' W 119°16'0 0.0
2017-Dec-07 12:30N 34°14' W 119°16'0 0.0
2017-Dec-07 12:00N 34°14' W 119°16'0 0.0
2017-Dec-07 11:30N 34°14' W 119°16'0 0.0
2017-Dec-07 11:01N 34°14' W 119°16'0 0.0
2017-Dec-07 10:31N 34°14' W 119°16'0 0.0
2017-Dec-07 10:00N 34°14' W 119°16'0 0.0
2017-Dec-07 09:30N 34°14' W 119°16'4 5.7
2017-Dec-07 08:49N 34°12' W 119°19'3 7.3
2017-Dec-07 08:29N 34°10' W 119°21'3 7.0
2017-Dec-07 08:00N 34°07' W 119°24'4 7.0
2017-Dec-07 07:26N 34°05' W 119°27'3 7.5
2017-Dec-07 07:01N 34°02' W 119°29'4 7.5
2017-Dec-07 06:30N 33°59' W 119°33'5 6.9
2017-Dec-07 05:49N 33°59' W 119°38'1 4.3
2017-Dec-07 05:30N 33°59' W 119°40'3 0.3
2017-Dec-06 21:10N 33°59' W 119°37'1 8.3
2017-Dec-06 21:01N 33°59' W 119°35'  
Track history (hours):
 
Tides and Currents Weather Stations Pressure Air Temp Water Temp Dewpoint Dewpoint Depression Visibility Wind Speed Wind Dir Waves Ship Positions

San Pedro Pride

Owner: San Pedro Pride, Inc., Rancho Palos Verdes, CA. More information available from US FCC via Universal Licensing System and Coast Guard Vessel Documentation Center.

Last reported at 2017-Dec-15 00:46 UTC. Time now 2018-Jan-23 10:04 UTC.
Position N 33°58' W 119°40'.
Warning: this ship's position is 39 days out of date.

Type: Fishing. MMSI: 367730310.

Date/timePositionNaut miles runAvg speedWind from/ knotsBaromVisibWave heightAir tempDewpointWater temp
2017-Dec-15 00:46N 33°58' W 119°40'1 2.4
2017-Dec-15 00:25N 33°59' W 119°39'25 4.2
2017-Dec-14 18:30N 34°14' W 119°16'0 0.0
2017-Dec-14 18:00N 34°14' W 119°16'0 0.0
2017-Dec-14 17:30N 34°14' W 119°16'0 0.0
2017-Dec-14 17:00N 34°14' W 119°16'0 0.0
2017-Dec-14 16:28N 34°14' W 119°16'0 0.1
2017-Dec-14 16:00N 34°14' W 119°16'0 0.0
2017-Dec-14 15:00N 34°14' W 119°16'1 2.2
2017-Dec-14 14:30N 34°14' W 119°17'4 8.4
2017-Dec-14 14:00N 34°11' W 119°20'4 8.0
2017-Dec-14 13:29N 34°08' W 119°24'4 7.7
2017-Dec-14 13:00N 34°05' W 119°27'4 8.3
2017-Dec-14 12:28N 34°02' W 119°30'4 8.3
2017-Dec-14 12:00N 33°59' W 119°33'5 8.1
2017-Dec-14 11:25N 33°58' W 119°39'1 0.2
2017-Dec-14 07:34N 33°58' W 119°40'0 0.2
2017-Dec-14 06:11N 33°59' W 119°40'0 0.1
2017-Dec-13 23:57N 33°58' W 119°40'4 8.1
2017-Dec-13 23:30N 33°59' W 119°36'4 8.5
2017-Dec-13 22:59N 34°00' W 119°31'5 8.8
2017-Dec-13 22:24N 34°04' W 119°27'4 8.8
2017-Dec-13 22:00N 34°07' W 119°24'4 8.4
2017-Dec-13 21:30N 34°10' W 119°21'4 8.3
2017-Dec-13 21:00N 34°13' W 119°18'2 3.5
2017-Dec-13 20:25N 34°14' W 119°16'0 0.0
2017-Dec-13 20:00N 34°14' W 119°16'0 0.0
2017-Dec-13 19:30N 34°14' W 119°16'0 0.0
2017-Dec-13 19:00N 34°14' W 119°16'0 0.0
2017-Dec-13 18:24N 34°14' W 119°16'0 0.0
2017-Dec-13 18:00N 34°14' W 119°16'0 0.1
2017-Dec-13 17:29N 34°14' W 119°16'0 0.0
2017-Dec-13 17:00N 34°14' W 119°16'0 0.0
2017-Dec-13 16:29N 34°14' W 119°16'2 4.4
2017-Dec-13 15:58N 34°13' W 119°18'4 8.3
2017-Dec-13 15:27N 34°10' W 119°22'4 8.2
2017-Dec-13 14:58N 34°07' W 119°24'4 8.1
2017-Dec-13 14:27N 34°04' W 119°28'4 8.6
2017-Dec-13 13:57N 34°00' W 119°31'4 8.2
2017-Dec-13 13:29N 33°59' W 119°35'4 8.3
2017-Dec-13 13:00N 33°58' W 119°40'0 0.0
2017-Dec-13 09:06N 33°58' W 119°40'0 0.5
2017-Dec-13 08:53N 33°58' W 119°40'1 1.2
2017-Dec-13 08:14N 33°59' W 119°39'1 0.1
2017-Dec-13 00:30N 33°59' W 119°40'3 5.2
2017-Dec-13 00:00N 33°59' W 119°37'4 8.0
2017-Dec-12 23:26N 33°60' W 119°32'4 8.7
2017-Dec-12 22:57N 34°03' W 119°28'4 8.6
2017-Dec-12 22:26N 34°06' W 119°25'4 8.5
2017-Dec-12 22:00N 34°09' W 119°22'4 8.2
2017-Dec-12 21:29N 34°12' W 119°18'3 6.7
2017-Dec-12 21:00N 34°15' W 119°16'0 0.4
2017-Dec-12 20:30N 34°14' W 119°16'0 0.1
2017-Dec-12 20:00N 34°14' W 119°16'0 0.0
2017-Dec-12 19:30N 34°14' W 119°16'0 0.0
2017-Dec-12 19:00N 34°14' W 119°16'0 0.0
2017-Dec-12 18:30N 34°14' W 119°16'0 0.0
2017-Dec-12 17:57N 34°14' W 119°16'0 0.8
2017-Dec-12 17:30N 34°15' W 119°16'4 7.3
2017-Dec-12 17:00N 34°12' W 119°19'6 8.2
2017-Dec-12 16:19N 34°08' W 119°23'3 7.9
2017-Dec-12 15:59N 34°06' W 119°25'4 8.2
2017-Dec-12 15:29N 34°03' W 119°29'4 8.4
2017-Dec-12 15:00N 33°60' W 119°32'5 8.1
2017-Dec-12 14:25N 33°59' W 119°38'2 1.1
2017-Dec-12 12:26N 33°58' W 119°40'1 0.1
2017-Dec-12 05:25N 33°58' W 119°39'2 0.3
2017-Dec-12 00:05N 33°59' W 119°37'1 8.4
2017-Dec-12 00:00N 33°59' W 119°36'4 8.2
2017-Dec-11 23:30N 34°00' W 119°31'4 8.2
2017-Dec-11 23:00N 34°03' W 119°28'4 8.3
2017-Dec-11 22:30N 34°06' W 119°25'5 8.1
2017-Dec-11 21:54N 34°10' W 119°21'4 8.0
2017-Dec-11 21:25N 34°13' W 119°18'3 6.4
2017-Dec-11 21:00N 34°15' W 119°16'0 0.8
2017-Dec-11 20:29N 34°14' W 119°16'0 0.0
2017-Dec-11 20:00N 34°14' W 119°16'0 0.0
2017-Dec-11 19:30N 34°14' W 119°16'0 0.0
2017-Dec-11 19:00N 34°14' W 119°16'0 0.0
2017-Dec-11 18:30N 34°14' W 119°16'0 0.0
2017-Dec-11 18:00N 34°14' W 119°16'0 0.0
2017-Dec-11 17:30N 34°14' W 119°16'0 0.0
2017-Dec-11 17:00N 34°14' W 119°16'1 1.0
2017-Dec-11 16:27N 34°15' W 119°16'5 8.0
2017-Dec-11 15:48N 34°11' W 119°21'3 8.2
2017-Dec-11 15:23N 34°08' W 119°23'3 7.8
2017-Dec-11 14:57N 34°06' W 119°26'3 8.0
2017-Dec-11 14:30N 34°03' W 119°29'4 8.1
2017-Dec-11 13:59N 33°60' W 119°32'4 0.2
2017-Dec-10 19:18N 33°59' W 119°37'3 8.5
2017-Dec-10 18:56N 33°59' W 119°33'4 8.1
2017-Dec-10 18:30N 34°01' W 119°30'5 8.6
2017-Dec-10 17:57N 34°05' W 119°26'4 8.5
2017-Dec-10 17:30N 34°08' W 119°23'5 8.3
2017-Dec-10 16:56N 34°12' W 119°19'4 8.3
2017-Dec-10 16:26N 34°15' W 119°16'0 1.1
2017-Dec-10 16:00N 34°14' W 119°16'0 0.0
2017-Dec-10 15:30N 34°14' W 119°16'0 0.0
2017-Dec-10 14:58N 34°14' W 119°16'0 0.0
2017-Dec-10 14:29N 34°14' W 119°16'0 0.0
2017-Dec-10 13:59N 34°14' W 119°16'0 0.0
2017-Dec-10 13:30N 34°14' W 119°16'0 0.0
2017-Dec-10 12:55N 34°14' W 119°16'0 0.0
2017-Dec-10 12:14N 34°14' W 119°16'0 0.0
2017-Dec-10 11:59N 34°14' W 119°16'0 0.0
2017-Dec-10 11:25N 34°14' W 119°16'0 0.0
2017-Dec-10 10:57N 34°14' W 119°16'0 0.0
2017-Dec-10 10:28N 34°14' W 119°16'0 0.0
2017-Dec-10 09:54N 34°14' W 119°16'0 0.0
2017-Dec-10 09:28N 34°14' W 119°16'0 0.0
2017-Dec-10 09:00N 34°14' W 119°16'0 0.0
2017-Dec-10 08:26N 34°14' W 119°16'0 0.0
2017-Dec-10 08:00N 34°14' W 119°16'0 0.0
2017-Dec-10 07:30N 34°14' W 119°16'0 0.0
2017-Dec-10 06:56N 34°14' W 119°16'0 0.0
2017-Dec-10 06:30N 34°14' W 119°16'0 0.0
2017-Dec-10 06:00N 34°14' W 119°16'0 0.0
2017-Dec-10 05:29N 34°14' W 119°16'0 0.0
2017-Dec-10 04:58N 34°14' W 119°16'0 0.0
2017-Dec-10 04:29N 34°14' W 119°16'0 0.0
2017-Dec-10 04:00N 34°14' W 119°16'0 0.0
2017-Dec-10 03:17N 34°14' W 119°16'0 0.0
2017-Dec-10 02:54N 34°14' W 119°16'0 0.0
2017-Dec-10 02:14N 34°14' W 119°16'0 0.0
2017-Dec-10 01:57N 34°14' W 119°16'0 0.0
2017-Dec-10 01:30N 34°14' W 119°16'0 0.0
2017-Dec-10 01:00N 34°14' W 119°16'0 0.0
2017-Dec-10 00:30N 34°14' W 119°16'0 0.0
2017-Dec-09 23:52N 34°14' W 119°16'0 0.0
2017-Dec-09 23:30N 34°14' W 119°16'0 0.0
2017-Dec-09 22:59N 34°14' W 119°16'0 0.0
2017-Dec-09 22:30N 34°14' W 119°16'0 0.0
2017-Dec-09 21:58N 34°14' W 119°16'0 0.0
2017-Dec-09 21:16N 34°14' W 119°16'0 0.0
2017-Dec-09 20:58N 34°14' W 119°16'0 0.0
2017-Dec-09 20:29N 34°14' W 119°16'0 0.0
2017-Dec-09 19:56N 34°14' W 119°16'0 0.0
2017-Dec-09 19:28N 34°14' W 119°16'0 0.0
2017-Dec-09 18:59N 34°14' W 119°16'0 0.0
2017-Dec-09 18:22N 34°14' W 119°16'0 0.0
2017-Dec-09 17:57N 34°14' W 119°16'0 0.0
2017-Dec-09 17:24N 34°14' W 119°16'0 0.0
2017-Dec-09 16:58N 34°14' W 119°16'0 0.0
2017-Dec-09 16:23N 34°14' W 119°16'0 0.0
2017-Dec-09 15:58N 34°14' W 119°16'0 0.0
2017-Dec-09 15:30N 34°14' W 119°16'0 0.0
2017-Dec-09 14:58N 34°14' W 119°16'0 0.0
2017-Dec-09 14:28N 34°14' W 119°16'0 0.0
2017-Dec-09 13:58N 34°14' W 119°16'0 0.0
2017-Dec-09 13:29N 34°14' W 119°16'0 0.0
2017-Dec-09 13:00N 34°14' W 119°16'0 0.0
2017-Dec-09 12:24N 34°14' W 119°16'0 0.0
2017-Dec-09 12:00N 34°14' W 119°16'0 0.0
2017-Dec-09 11:30N 34°14' W 119°16'0 0.0
2017-Dec-09 11:00N 34°14' W 119°16'0 0.0
2017-Dec-09 10:30N 34°14' W 119°16'0 0.0
2017-Dec-09 09:59N 34°14' W 119°16'0 0.0
2017-Dec-09 09:29N 34°14' W 119°16'0 0.0
2017-Dec-09 08:56N 34°14' W 119°16'0 0.0
2017-Dec-09 08:27N 34°14' W 119°16'0 0.0
2017-Dec-09 08:00N 34°14' W 119°16'0 0.0
2017-Dec-09 07:22N 34°14' W 119°16'0 0.0
2017-Dec-09 06:56N 34°14' W 119°16'0 0.0
2017-Dec-09 06:30N 34°14' W 119°16'0 0.0
2017-Dec-09 05:55N 34°14' W 119°16'0 0.0
2017-Dec-09 05:20N 34°14' W 119°16'0 0.0
2017-Dec-09 04:57N 34°14' W 119°16'0 0.0
2017-Dec-09 04:30N 34°14' W 119°16'0 0.0
2017-Dec-09 04:00N 34°14' W 119°16'0 0.0
2017-Dec-09 03:30N 34°14' W 119°16'0 0.0
2017-Dec-09 03:00N 34°14' W 119°16'0 0.0
2017-Dec-09 02:30N 34°14' W 119°16'0 0.0
2017-Dec-09 02:00N 34°14' W 119°16'0 0.0
2017-Dec-09 01:29N 34°14' W 119°16'0 0.0
2017-Dec-09 00:54N 34°14' W 119°16'0 0.0
2017-Dec-09 00:29N 34°14' W 119°16'0 0.0
2017-Dec-08 23:52N 34°14' W 119°16'0 0.0
2017-Dec-08 23:28N 34°14' W 119°16'0 0.0
2017-Dec-08 22:59N 34°14' W 119°16'0 0.0
2017-Dec-08 22:30N 34°14' W 119°16'0 0.0
2017-Dec-08 21:59N 34°14' W 119°16'0 0.0
2017-Dec-08 21:30N 34°14' W 119°16'0 0.0
2017-Dec-08 20:59N 34°14' W 119°16'0 0.0
2017-Dec-08 20:29N 34°14' W 119°16'0 0.0
2017-Dec-08 19:55N 34°14' W 119°16'0 0.0
2017-Dec-08 19:30N 34°14' W 119°16'0 0.0
2017-Dec-08 18:59N 34°14' W 119°16'0 0.0
2017-Dec-08 18:29N 34°14' W 119°16'1 1.6
2017-Dec-08 18:01N 34°14' W 119°17'0 0.2
2017-Dec-08 17:29N 34°14' W 119°17'0 0.3
2017-Dec-08 17:00N 34°14' W 119°17'1 1.4
2017-Dec-08 16:30N 34°14' W 119°16'0 0.0
2017-Dec-08 16:00N 34°14' W 119°16'0 0.0
2017-Dec-08 15:30N 34°14' W 119°16'0 0.0
2017-Dec-08 14:58N 34°14' W 119°16'0 0.0
2017-Dec-08 14:30N 34°14' W 119°16'0 0.0
2017-Dec-08 13:52N 34°14' W 119°16'0 0.0
2017-Dec-08 13:21N 34°14' W 119°16'0 0.0
2017-Dec-08 12:58N 34°14' W 119°16'0 0.0
2017-Dec-08 12:27N 34°14' W 119°16'0 0.0
2017-Dec-08 11:51N 34°14' W 119°16'0 0.0
2017-Dec-08 11:30N 34°14' W 119°16'3 5.3
2017-Dec-08 10:58N 34°13' W 119°18'4 8.0
2017-Dec-08 10:30N 34°10' W 119°21'4 8.1
2017-Dec-08 10:00N 34°07' W 119°24'4 7.8
2017-Dec-08 09:30N 34°04' W 119°28'4 8.4
2017-Dec-08 09:00N 34°01' W 119°31'4 7.3
2017-Dec-08 08:26N 33°59' W 119°35'3 7.3
2017-Dec-08 08:00N 33°59' W 119°39'0 0.0
2017-Dec-08 05:22N 33°59' W 119°39'3 0.4
2017-Dec-07 23:15N 33°59' W 119°36'3 8.6
2017-Dec-07 22:57N 33°59' W 119°33'4 8.6
2017-Dec-07 22:29N 34°01' W 119°29'4 8.5
2017-Dec-07 22:00N 34°05' W 119°27'4 8.1
2017-Dec-07 21:27N 34°08' W 119°23'4 8.5
2017-Dec-07 21:00N 34°11' W 119°20'4 8.4
2017-Dec-07 20:30N 34°14' W 119°17'1 1.7
2017-Dec-07 20:00N 34°14' W 119°16'0 0.0
2017-Dec-07 19:30N 34°14' W 119°16'0 0.0
2017-Dec-07 19:00N 34°14' W 119°16'0 0.0
2017-Dec-07 18:30N 34°14' W 119°16'0 0.0
2017-Dec-07 18:01N 34°14' W 119°16'0 0.0
2017-Dec-07 17:31N 34°14' W 119°16'0 0.0
2017-Dec-07 17:00N 34°14' W 119°16'0 0.0
2017-Dec-07 16:31N 34°14' W 119°16'0 0.0
2017-Dec-07 16:00N 34°14' W 119°16'0 0.0
2017-Dec-07 15:31N 34°14' W 119°16'0 0.0
2017-Dec-07 15:01N 34°14' W 119°16'0 0.0
2017-Dec-07 14:31N 34°14' W 119°16'0 0.0
2017-Dec-07 14:00N 34°14' W 119°16'0 0.0
2017-Dec-07 13:31N 34°14' W 119°16'0 0.0
2017-Dec-07 13:00N 34°14' W 119°16'0 0.0
2017-Dec-07 12:30N 34°14' W 119°16'0 0.0
2017-Dec-07 12:00N 34°14' W 119°16'0 0.0
2017-Dec-07 11:30N 34°14' W 119°16'0 0.0
2017-Dec-07 11:01N 34°14' W 119°16'0 0.0
2017-Dec-07 10:31N 34°14' W 119°16'0 0.0
2017-Dec-07 10:00N 34°14' W 119°16'0 0.0
2017-Dec-07 09:30N 34°14' W 119°16'4 5.7
2017-Dec-07 08:49N 34°12' W 119°19'3 7.3
2017-Dec-07 08:29N 34°10' W 119°21'3 7.0
2017-Dec-07 08:00N 34°07' W 119°24'4 7.0
2017-Dec-07 07:26N 34°05' W 119°27'3 7.5
2017-Dec-07 07:01N 34°02' W 119°29'4 7.5
2017-Dec-07 06:30N 33°59' W 119°33'5 6.9
2017-Dec-07 05:49N 33°59' W 119°38'1 4.3
2017-Dec-07 05:30N 33°59' W 119°40'3 0.3
2017-Dec-06 21:10N 33°59' W 119°37'1 8.3
2017-Dec-06 21:01N 33°59' W 119°35'  

Dump ship's entire track history